Time;durP1;ratioP1;P1;durP2;ratioP2;P2;SDS_P1;SDS_P2;PMS_P1;PMS_P2;Temp;Humidity;BMP_temperature;BMP_pressure;BME280_temperature;BME280_humidity;BME280_pressure;Samples;Min_cycle;Max_cycle;Signal;HPM_P1;HPM_P2
2023/09/24 00:02:06;;;;;;;6.87;2.83;;;12.30;99.90;;;;;;6129289;23;20385;-94
2023/09/24 00:04:31;;;;;;;7.50;2.80;;;12.50;99.90;;;;;;6153760;23;20735;-95
2023/09/24 00:06:57;;;;;;;6.07;3.50;;;12.50;99.90;;;;;;6153649;23;20726;-94
2023/09/24 00:09:23;;;;;;;6.97;2.50;;;12.90;99.90;;;;;;6153825;23;20376;-95
2023/09/24 00:11:48;;;;;;;6.72;2.90;;;12.10;99.90;;;;;;6153188;23;20922;-93
2023/09/24 00:14:14;;;;;;;6.97;2.83;;;12.10;99.90;;;;;;6154095;23;20713;-93
2023/09/24 00:16:40;;;;;;;12.17;4.53;;;12.00;99.90;;;;;;6129369;23;20427;-93
2023/09/24 00:19:06;;;;;;;6.37;3.20;;;12.10;99.90;;;;;;6154118;23;20460;-94
2023/09/24 00:21:32;;;;;;;11.52;4.43;;;11.90;99.90;;;;;;6153578;23;20452;-93
2023/09/24 00:23:58;;;;;;;4.93;3.10;;;12.20;99.90;;;;;;6153857;23;20932;-94
2023/09/24 00:26:24;;;;;;;6.10;2.28;;;12.00;99.90;;;;;;6153696;23;20455;-93
2023/09/24 00:28:50;;;;;;;7.75;2.88;;;11.70;99.90;;;;;;6153843;23;20442;-94
2023/09/24 00:31:16;;;;;;;6.63;2.70;;;12.60;99.90;;;;;;6129298;23;20366;-93
2023/09/24 00:33:42;;;;;;;5.40;2.73;;;11.50;99.90;;;;;;6128727;23;20366;-94
2023/09/24 00:36:08;;;;;;;7.60;3.27;;;11.70;99.90;;;;;;6153894;23;20435;-93
2023/09/24 00:38:34;;;;;;;7.68;3.33;;;11.70;99.90;;;;;;6154257;23;20377;-94
2023/09/24 00:41:00;;;;;;;9.27;3.30;;;11.70;99.90;;;;;;6153449;23;20389;-95
2023/09/24 00:43:30;;;;;;;10.80;4.18;;;11.60;99.90;;;;;;6153625;23;20405;-93
2023/09/24 00:45:58;;;;;;;5.15;2.80;;;11.70;99.90;;;;;;6128083;23;20401;-94
2023/09/24 00:48:29;;;;;;;8.77;4.03;;;11.60;99.90;;;;;;6153623;23;20916;-94
2023/09/24 00:51:02;;;;;;;7.57;3.50;;;11.30;99.90;;;;;;6153598;23;20372;-94
2023/09/24 00:53:30;;;;;;;6.97;3.30;;;11.50;99.90;;;;;;6129507;23;20410;-93
2023/09/24 00:55:57;;;;;;;6.15;2.97;;;11.60;99.90;;;;;;6153716;23;20408;-93
2023/09/24 00:58:27;;;;;;;10.50;4.63;;;11.70;99.90;;;;;;6153868;23;20370;-93
2023/09/24 01:00:54;;;;;;;10.35;5.60;;;11.40;99.90;;;;;;6153177;23;20455;-94
2023/09/24 01:03:22;;;;;;;9.50;4.32;;;11.50;99.90;;;;;;6153208;23;20444;-94
2023/09/24 01:05:49;;;;;;;5.95;3.63;;;11.20;99.90;;;;;;6129354;23;20397;-95
2023/09/24 01:08:19;;;;;;;5.85;3.58;;;11.60;99.90;;;;;;6153093;23;20452;-93
2023/09/24 01:10:46;;;;;;;9.77;4.40;;;11.40;99.90;;;;;;6153897;23;20370;-93
2023/09/24 01:13:15;;;;;;;12.00;4.60;;;11.30;99.90;;;;;;6153491;23;20369;-93
2023/09/24 01:15:43;;;;;;;7.00;3.97;;;10.90;99.90;;;;;;6153820;23;20373;-94
2023/09/24 01:18:08;;;;;;;6.18;3.47;;;11.40;99.90;;;;;;6153156;23;20373;-93
2023/09/24 01:20:36;;;;;;;7.28;4.00;;;11.10;99.90;;;;;;6153570;23;20672;-93
2023/09/24 01:23:03;;;;;;;6.97;3.80;;;11.40;99.90;;;;;;6153657;23;20416;-93
2023/09/24 01:25:34;;;;;;;7.30;3.33;;;11.00;99.90;;;;;;6153260;23;20425;-94
2023/09/24 01:27:59;;;;;;;10.70;3.92;;;11.20;99.90;;;;;;6129127;23;20405;-94
2023/09/24 01:30:28;;;;;;;5.65;2.30;;;11.00;99.90;;;;;;6153305;23;20382;-93
2023/09/24 01:32:53;;;;;;;6.70;2.63;;;11.00;99.90;;;;;;6153446;23;20778;-93
2023/09/24 01:35:25;;;;;;;8.45;3.17;;;11.30;99.90;;;;;;6152944;23;20377;-94
2023/09/24 01:37:52;;;;;;;5.55;2.78;;;10.90;99.90;;;;;;6153670;23;20919;-94
2023/09/24 01:40:21;;;;;;;8.85;2.50;;;11.00;99.90;;;;;;6153529;23;20386;-93
2023/09/24 01:42:47;;;;;;;8.52;2.78;;;11.10;99.90;;;;;;6153156;23;20365;-94
2023/09/24 01:45:15;;;;;;;5.53;1.95;;;10.90;99.90;;;;;;6153289;23;20392;-93
2023/09/24 01:47:41;;;;;;;10.30;3.40;;;10.80;99.90;;;;;;6152918;23;20704;-93
2023/09/24 01:50:08;;;;;;;8.30;2.90;;;11.00;99.90;;;;;;6153683;23;20381;-94
2023/09/24 01:52:37;;;;;;;8.23;2.80;;;10.80;99.90;;;;;;6153042;23;21053;-94
2023/09/24 01:55:03;;;;;;;8.65;2.90;;;11.00;99.90;;;;;;6153290;23;20429;-93
2023/09/24 01:57:29;;;;;;;12.00;3.72;;;10.80;99.90;;;;;;6128367;23;20373;-95
2023/09/24 02:00:11;;;;;;;8.02;2.95;;;11.10;99.90;;;;;;6153208;23;20651;-94
2023/09/24 02:02:40;;;;;;;7.75;2.67;;;10.70;99.90;;;;;;6152712;23;20385;-94
2023/09/24 02:05:09;;;;;;;8.70;3.43;;;10.70;99.90;;;;;;6153164;23;20381;-94
2023/09/24 02:07:36;;;;;;;6.95;2.95;;;10.70;99.90;;;;;;6153310;23;20476;-94
2023/09/24 02:10:05;;;;;;;10.25;3.50;;;10.90;99.90;;;;;;6152748;23;20441;-94
2023/09/24 02:12:35;;;;;;;9.82;3.28;;;10.80;99.90;;;;;;6152984;23;20696;-94
2023/09/24 02:15:04;;;;;;;7.88;2.92;;;10.80;99.90;;;;;;6153018;23;20397;-93
2023/09/24 02:17:30;;;;;;;9.50;3.75;;;10.90;99.90;;;;;;6152946;23;20405;-95
2023/09/24 02:19:55;;;;;;;9.17;3.70;;;10.70;99.90;;;;;;6153848;23;20388;-94
2023/09/24 02:22:22;;;;;;;7.23;3.20;;;11.00;99.90;;;;;;6153035;23;20373;-93
2023/09/24 02:24:48;;;;;;;8.77;3.50;;;10.80;99.90;;;;;;6153127;23;20850;-93
2023/09/24 02:27:14;;;;;;;7.43;2.88;;;10.40;99.90;;;;;;6152920;23;20400;-93
2023/09/24 02:29:39;;;;;;;9.50;3.17;;;10.60;99.90;;;;;;6153458;23;20373;-93
2023/09/24 02:32:06;;;;;;;5.83;2.73;;;11.10;99.90;;;;;;6153025;23;20688;-93
2023/09/24 02:34:31;;;;;;;9.87;3.17;;;11.00;99.90;;;;;;6153081;23;20380;-94
2023/09/24 02:36:57;;;;;;;5.40;2.93;;;11.10;99.90;;;;;;6153287;23;20365;-95
2023/09/24 02:39:23;;;;;;;12.15;4.10;;;11.10;99.90;;;;;;6151950;23;20839;-93
2023/09/24 02:41:51;;;;;;;7.82;3.55;;;10.90;99.90;;;;;;6153430;23;20387;-94
2023/09/24 02:44:17;;;;;;;7.53;3.40;;;10.80;99.90;;;;;;6152527;23;20413;-93
2023/09/24 02:46:44;;;;;;;10.25;4.93;;;11.20;99.90;;;;;;6152914;23;20400;-94
2023/09/24 02:49:10;;;;;;;9.70;4.57;;;11.00;99.90;;;;;;6152479;23;20459;-92
2023/09/24 02:51:35;;;;;;;12.70;6.80;;;11.10;99.90;;;;;;6152692;23;20448;-93
2023/09/24 02:54:01;;;;;;;14.33;6.30;;;11.00;99.90;;;;;;6152990;23;20854;-93
2023/09/24 02:56:28;;;;;;;17.38;7.28;;;11.00;99.90;;;;;;6127854;23;20378;-93
2023/09/24 02:58:55;;;;;;;16.13;8.00;;;11.30;99.90;;;;;;6152341;23;20372;-93
2023/09/24 03:01:20;;;;;;;15.47;6.53;;;11.40;99.90;;;;;;6152053;23;20376;-93
2023/09/24 03:03:46;;;;;;;15.68;7.50;;;12.00;99.90;;;;;;6152374;23;20498;-93
2023/09/24 03:06:13;;;;;;;17.52;7.60;;;11.90;99.90;;;;;;6152092;23;20864;-94
2023/09/24 03:08:39;;;;;;;21.27;9.20;;;11.50;99.90;;;;;;6151942;23;20842;-93
2023/09/24 03:11:14;;;;;;;14.50;7.73;;;11.30;99.90;;;;;;6151870;23;20516;-93
2023/09/24 03:13:40;;;;;;;18.92;9.02;;;11.70;99.90;;;;;;6152064;23;20369;-94
2023/09/24 03:16:07;;;;;;;19.08;9.23;;;11.90;99.90;;;;;;6127003;23;20369;-93
2023/09/24 03:18:33;;;;;;;16.65;8.45;;;11.90;99.90;;;;;;6152115;23;20378;-93
2023/09/24 03:20:59;;;;;;;17.88;8.68;;;12.00;99.90;;;;;;6152215;23;20366;-93
2023/09/24 03:23:24;;;;;;;16.33;8.60;;;11.60;99.90;;;;;;6151871;23;20441;-94
2023/09/24 03:25:50;;;;;;;17.98;9.02;;;11.80;99.90;;;;;;6151836;23;20401;-93
2023/09/24 03:28:16;;;;;;;20.10;9.18;;;11.70;99.90;;;;;;6151854;23;20369;-93
2023/09/24 03:30:41;;;;;;;15.77;8.53;;;12.20;99.90;;;;;;6151532;23;20365;-94
2023/09/24 03:33:07;;;;;;;14.52;8.18;;;12.00;99.90;;;;;;6152077;23;20691;-93
2023/09/24 03:35:33;;;;;;;15.27;7.65;;;12.20;99.90;;;;;;6151246;23;20377;-94
2023/09/24 03:37:59;;;;;;;15.23;8.60;;;12.20;99.90;;;;;;6151919;23;20365;-95
2023/09/24 03:40:29;;;;;;;14.65;7.72;;;12.20;99.90;;;;;;6151075;23;20373;-94
2023/09/24 03:42:55;;;;;;;12.15;7.85;;;12.10;99.90;;;;;;6127141;23;20377;-94
2023/09/24 03:45:23;;;;;;;15.77;7.50;;;11.90;99.90;;;;;;6150846;23;20397;-94
2023/09/24 03:47:49;;;;;;;13.73;8.00;;;11.90;99.90;;;;;;6151691;23;20374;-94
2023/09/24 03:50:17;;;;;;;10.35;6.70;;;12.10;99.90;;;;;;6151628;23;20381;-93
2023/09/24 03:52:48;;;;;;;14.18;8.00;;;11.90;99.90;;;;;;6151711;23;20452;-94
2023/09/24 03:55:15;;;;;;;18.77;9.18;;;11.80;99.90;;;;;;6151851;23;20382;-94
2023/09/24 03:57:42;;;;;;;13.35;7.80;;;11.50;99.90;;;;;;6152085;23;20902;-93
2023/09/24 04:00:13;;;;;;;15.23;8.27;;;11.80;99.90;;;;;;6151809;23;20372;-93
2023/09/24 04:02:39;;;;;;;18.02;9.50;;;11.20;99.90;;;;;;6150759;23;20398;-93
2023/09/24 04:05:09;;;;;;;17.75;9.05;;;11.70;99.90;;;;;;6126632;23;20377;-93
2023/09/24 04:07:38;;;;;;;13.80;9.23;;;11.40;99.90;;;;;;6151544;23;20684;-94
2023/09/24 04:10:05;;;;;;;15.35;10.05;;;11.20;99.90;;;;;;6126978;23;20432;-92
2023/09/24 04:12:34;;;;;;;18.20;11.30;;;11.40;99.90;;;;;;6152109;23;20428;-93
2023/09/24 04:15:04;;;;;;;19.23;11.13;;;11.40;99.90;;;;;;6151395;23;20365;-93
2023/09/24 04:17:31;;;;;;;18.10;11.30;;;11.30;99.90;;;;;;6151870;23;20382;-94
2023/09/24 04:19:57;;;;;;;25.38;12.32;;;11.70;99.90;;;;;;6152052;23;20520;-93
2023/09/24 04:22:23;;;;;;;17.80;10.68;;;11.30;99.90;;;;;;6153673;23;20451;-94
2023/09/24 04:24:54;;;;;;;18.60;12.13;;;10.70;99.90;;;;;;6153374;23;20851;-93
2023/09/24 04:27:22;;;;;;;17.73;11.90;;;11.40;99.90;;;;;;6153715;23;20393;-95
2023/09/24 04:29:48;;;;;;;19.30;12.47;;;11.20;99.90;;;;;;6153510;23;20453;-93
2023/09/24 04:32:15;;;;;;;17.87;11.37;;;11.50;99.90;;;;;;6153425;23;20969;-94
2023/09/24 04:34:41;;;;;;;20.90;13.07;;;11.40;99.90;;;;;;6151620;23;20381;-93
2023/09/24 04:37:07;;;;;;;17.75;11.93;;;11.50;99.90;;;;;;6151999;23;20435;-93
2023/09/24 04:39:33;;;;;;;17.23;11.67;;;11.60;99.90;;;;;;6152910;23;20493;-94
2023/09/24 04:41:58;;;;;;;19.98;13.18;;;11.30;99.90;;;;;;6152816;23;20369;-94
2023/09/24 04:44:24;;;;;;;23.70;14.75;;;11.70;99.90;;;;;;6152242;23;20471;-93
2023/09/24 04:46:51;;;;;;;21.93;13.03;;;11.70;99.90;;;;;;6153349;23;20404;-93
2023/09/24 04:49:17;;;;;;;19.02;12.10;;;11.60;99.90;;;;;;6152203;23;20465;-94
2023/09/24 04:51:42;;;;;;;19.27;13.48;;;11.60;99.90;;;;;;6152769;23;20413;-95
2023/09/24 04:54:08;;;;;;;16.48;11.13;;;11.70;99.90;;;;;;6151675;23;21027;-94
2023/09/24 04:56:34;;;;;;;15.30;10.97;;;11.80;99.90;;;;;;6152486;23;20373;-94
2023/09/24 04:59:00;;;;;;;20.58;12.63;;;11.70;99.90;;;;;;6152550;23;20424;-94
2023/09/24 05:01:26;;;;;;;16.58;11.43;;;11.60;99.90;;;;;;6152731;23;20452;-94
2023/09/24 05:03:53;;;;;;;14.83;11.40;;;12.10;99.90;;;;;;6151516;23;20377;-94
2023/09/24 05:06:19;;;;;;;16.58;10.80;;;11.80;99.90;;;;;;6151107;23;20401;-93
2023/09/24 05:08:45;;;;;;;16.00;11.10;;;11.60;99.90;;;;;;6149682;23;20877;-94
2023/09/24 05:11:12;;;;;;;13.45;9.27;;;11.50;99.90;;;;;;6152800;23;20376;-94
2023/09/24 05:13:38;;;;;;;17.67;11.18;;;11.80;99.90;;;;;;6152641;23;20881;-93
2023/09/24 05:16:04;;;;;;;14.27;9.97;;;11.60;99.90;;;;;;6151795;23;20369;-93
2023/09/24 05:18:32;;;;;;;15.98;10.90;;;11.90;99.90;;;;;;6127862;23;20463;-93
2023/09/24 05:20:57;;;;;;;16.98;11.20;;;11.90;99.90;;;;;;6152267;23;20468;-95
2023/09/24 05:23:23;;;;;;;14.38;10.60;;;11.50;99.90;;;;;;6153354;23;20398;-94
2023/09/24 05:25:52;;;;;;;16.83;10.80;;;11.50;99.90;;;;;;6152680;23;20393;-94
2023/09/24 05:28:18;;;;;;;15.95;9.77;;;11.70;99.90;;;;;;6152162;23;20985;-94
2023/09/24 05:30:52;;;;;;;13.85;9.73;;;11.80;99.90;;;;;;6152843;23;20393;-94
2023/09/24 05:33:18;;;;;;;11.80;9.45;;;11.60;99.90;;;;;;6152903;23;20372;-94
2023/09/24 05:35:44;;;;;;;16.97;10.33;;;11.50;99.90;;;;;;6153000;23;20362;-94
2023/09/24 05:38:11;;;;;;;14.63;9.57;;;11.60;99.90;;;;;;6152281;23;21313;-94
2023/09/24 05:40:39;;;;;;;15.65;10.50;;;11.70;99.90;;;;;;6152942;23;20378;-95
2023/09/24 05:43:05;;;;;;;13.43;9.30;;;11.30;99.90;;;;;;6152688;23;21027;-93
2023/09/24 05:45:30;;;;;;;16.40;10.23;;;11.60;99.90;;;;;;6152549;23;20425;-94
2023/09/24 05:47:56;;;;;;;17.17;10.48;;;11.20;99.90;;;;;;6152880;23;20838;-96
2023/09/24 05:50:22;;;;;;;14.50;9.93;;;11.40;99.90;;;;;;6152245;23;20373;-95
2023/09/24 05:52:47;;;;;;;17.90;10.63;;;11.10;99.90;;;;;;6152812;23;20366;-94
2023/09/24 05:55:13;;;;;;;14.30;10.20;;;11.60;99.90;;;;;;6151780;23;20373;-94
2023/09/24 05:57:39;;;;;;;15.13;10.37;;;11.40;99.90;;;;;;6152322;23;20977;-94
2023/09/24 06:00:08;;;;;;;15.55;10.57;;;11.50;99.90;;;;;;6149109;23;20373;-95
2023/09/24 06:02:34;;;;;;;14.93;10.27;;;11.40;99.90;;;;;;6151126;23;20381;-95
2023/09/24 06:05:00;;;;;;;14.50;9.93;;;11.40;99.90;;;;;;6150650;23;20378;-94
2023/09/24 06:07:28;;;;;;;16.13;9.70;;;11.40;99.90;;;;;;6147398;23;20451;-95
2023/09/24 06:09:55;;;;;;;12.45;9.18;;;11.60;99.90;;;;;;6152261;23;20365;-94
2023/09/24 06:12:22;;;;;;;15.65;10.10;;;11.50;99.90;;;;;;6151472;23;20383;-93
2023/09/24 06:14:47;;;;;;;12.60;9.35;;;11.80;99.90;;;;;;6152896;23;20412;-94
2023/09/24 06:17:13;;;;;;;15.25;9.60;;;12.00;99.90;;;;;;6151046;23;20369;-94
2023/09/24 06:19:39;;;;;;;15.70;10.00;;;11.60;99.90;;;;;;6142554;23;20392;-93
2023/09/24 06:22:04;;;;;;;14.80;10.10;;;11.90;99.90;;;;;;6152315;23;20409;-93
2023/09/24 06:24:30;;;;;;;12.65;8.65;;;11.60;99.90;;;;;;6151865;23;20369;-94
2023/09/24 06:26:55;;;;;;;16.07;9.87;;;12.10;99.90;;;;;;6152106;23;21224;-94
2023/09/24 06:29:21;;;;;;;13.93;9.70;;;12.00;99.90;;;;;;6151701;23;20691;-94
2023/09/24 06:31:48;;;;;;;13.95;8.77;;;11.90;99.90;;;;;;6152345;23;20436;-93
2023/09/24 06:34:13;;;;;;;11.35;7.95;;;12.60;99.90;;;;;;6151402;23;20846;-94
2023/09/24 06:36:39;;;;;;;13.50;8.30;;;12.10;99.90;;;;;;6152190;23;20461;-94
2023/09/24 06:39:08;;;;;;;13.80;8.50;;;12.40;99.90;;;;;;6151767;23;20431;-95
2023/09/24 06:41:35;;;;;;;12.50;8.90;;;12.40;99.90;;;;;;6151567;23;20365;-94
2023/09/24 06:44:00;;;;;;;13.07;7.78;;;12.30;99.90;;;;;;6151339;23;20377;-95
2023/09/24 06:46:26;;;;;;;13.77;8.27;;;12.60;99.90;;;;;;6151662;23;20397;-94
2023/09/24 06:49:00;;;;;;;14.18;8.65;;;12.90;99.90;;;;;;6151819;23;20392;-95
2023/09/24 06:51:29;;;;;;;13.90;8.18;;;12.90;99.90;;;;;;6151611;23;20906;-94
2023/09/24 06:53:54;;;;;;;13.60;8.00;;;12.60;99.90;;;;;;6151706;23;20370;-92
2023/09/24 06:56:23;;;;;;;11.75;7.82;;;12.90;99.90;;;;;;6146619;23;20400;-95
2023/09/24 06:58:48;;;;;;;10.55;7.00;;;13.00;99.90;;;;;;6146118;23;20416;-93
2023/09/24 07:01:14;;;;;;;12.27;7.37;;;12.80;99.90;;;;;;6149876;23;20377;-94
2023/09/24 07:03:40;;;;;;;13.00;7.90;;;12.70;99.90;;;;;;6151432;23;20453;-93
2023/09/24 07:06:06;;;;;;;12.45;7.72;;;12.70;99.90;;;;;;6152080;23;20463;-94
2023/09/24 07:08:35;;;;;;;11.47;8.20;;;12.70;99.90;;;;;;6151443;23;20444;-94
2023/09/24 07:11:20;;;;;;;13.55;7.32;;;12.70;99.90;;;;;;6127209;23;20365;-95
2023/09/24 07:13:46;;;;;;;12.38;7.60;;;12.80;99.90;;;;;;6151570;23;20397;-94
2023/09/24 07:16:12;;;;;;;11.52;7.07;;;12.90;99.90;;;;;;6127212;23;20372;-94
2023/09/24 07:18:38;;;;;;;12.40;6.90;;;13.20;99.90;;;;;;6151887;23;20369;-93
2023/09/24 07:21:05;;;;;;;10.02;7.05;;;13.20;99.90;;;;;;6151648;23;20372;-92
2023/09/24 07:23:30;;;;;;;9.93;6.50;;;13.10;99.90;;;;;;6152184;23;20925;-93
2023/09/24 07:25:56;;;;;;;11.27;6.23;;;13.20;99.90;;;;;;6151547;23;20394;-93
2023/09/24 07:28:34;;;;;;;9.90;6.15;;;13.40;99.90;;;;;;6152431;23;20427;-95
2023/09/24 07:31:00;;;;;;;10.40;6.70;;;13.90;99.90;;;;;;6150112;23;20457;-94
2023/09/24 07:33:26;;;;;;;11.45;5.90;;;14.10;99.90;;;;;;6151897;23;20414;-94
2023/09/24 07:35:52;;;;;;;9.73;5.93;;;14.40;99.90;;;;;;6151524;23;20374;-94
2023/09/24 07:38:21;;;;;;;10.77;6.20;;;13.70;99.90;;;;;;6150852;23;20464;-94
2023/09/24 07:40:49;;;;;;;10.80;5.85;;;13.90;99.90;;;;;;6152405;23;20412;-94
2023/09/24 07:43:15;;;;;;;8.98;6.13;;;13.90;99.90;;;;;;6152746;23;20376;-95
2023/09/24 07:45:42;;;;;;;9.60;5.38;;;13.80;99.90;;;;;;6151668;23;20393;-94
2023/09/24 07:48:13;;;;;;;9.27;5.03;;;14.10;99.90;;;;;;6151655;23;20372;-95
2023/09/24 07:50:38;;;;;;;10.02;5.20;;;14.30;99.90;;;;;;6152313;23;20448;-93
2023/09/24 07:53:05;;;;;;;8.70;5.22;;;14.50;99.90;;;;;;6152025;23;20439;-93
2023/09/24 07:55:31;;;;;;;9.43;5.10;;;14.60;99.90;;;;;;6153980;23;20365;-94
2023/09/24 07:57:57;;;;;;;10.10;5.13;;;14.60;99.90;;;;;;6154331;23;20436;-95
2023/09/24 08:00:22;;;;;;;9.07;4.83;;;14.60;99.90;;;;;;6154742;23;20432;-93
2023/09/24 08:02:48;;;;;;;8.35;4.63;;;14.50;99.90;;;;;;6154929;23;20377;-94
2023/09/24 08:05:15;;;;;;;7.43;4.40;;;14.70;99.90;;;;;;6152749;23;20381;-94
2023/09/24 08:07:40;;;;;;;8.18;4.53;;;14.80;99.90;;;;;;6154303;23;20509;-94
2023/09/24 08:10:06;;;;;;;8.77;4.40;;;15.10;99.90;;;;;;6153571;23;20413;-93
2023/09/24 08:12:32;;;;;;;9.57;4.60;;;14.70;99.90;;;;;;6154208;23;20369;-93
2023/09/24 08:14:57;;;;;;;7.83;4.07;;;15.10;99.90;;;;;;6153318;23;20413;-92
2023/09/24 08:17:23;;;;;;;7.57;3.80;;;15.10;99.90;;;;;;6153564;23;20376;-94
2023/09/24 08:19:49;;;;;;;9.20;4.00;;;15.20;99.90;;;;;;6153902;23;20400;-94
2023/09/24 08:22:15;;;;;;;10.63;4.05;;;15.00;99.90;;;;;;6153382;23;20373;-94
2023/09/24 08:24:41;;;;;;;7.10;3.65;;;14.90;99.90;;;;;;6154101;23;20388;-93
2023/09/24 08:27:06;;;;;;;6.67;3.13;;;15.40;99.90;;;;;;6153717;23;20405;-95
2023/09/24 08:29:33;;;;;;;8.85;3.60;;;15.30;99.90;;;;;;6153589;23;20469;-94
2023/09/24 08:31:58;;;;;;;7.72;3.42;;;15.20;99.90;;;;;;6152813;23;20369;-94
2023/09/24 08:34:27;;;;;;;6.63;3.05;;;15.80;99.90;;;;;;6153834;23;20448;-95
2023/09/24 08:36:53;;;;;;;6.57;2.97;;;15.40;99.90;;;;;;6154783;23;20377;-94
2023/09/24 08:39:18;;;;;;;6.63;2.70;;;15.40;99.90;;;;;;6154040;23;20869;-92
2023/09/24 08:41:45;;;;;;;6.75;2.78;;;16.00;99.90;;;;;;6153874;23;20771;-92
2023/09/24 08:44:16;;;;;;;7.35;2.47;;;15.90;99.90;;;;;;6153321;23;20437;-93
2023/09/24 08:46:44;;;;;;;6.18;2.63;;;15.70;99.90;;;;;;6153789;23;20396;-91
2023/09/24 08:49:10;;;;;;;6.38;2.47;;;15.70;99.90;;;;;;6153492;23;20372;-93
2023/09/24 08:51:37;;;;;;;8.63;2.90;;;15.90;99.90;;;;;;6153269;23;20365;-93
2023/09/24 08:54:03;;;;;;;6.40;2.50;;;15.90;99.90;;;;;;6153545;23;20369;-92
2023/09/24 08:56:29;;;;;;;6.93;2.47;;;15.90;99.90;;;;;;6128656;23;20369;-93
2023/09/24 08:58:55;;;;;;;7.03;2.10;;;16.30;99.90;;;;;;6153185;23;20460;-93
2023/09/24 09:01:21;;;;;;;8.05;2.35;;;16.30;99.90;;;;;;6153171;23;20840;-94
2023/09/24 09:03:48;;;;;;;5.20;1.80;;;16.50;99.90;;;;;;6153611;23;20385;-94
2023/09/24 09:06:34;;;;;;;6.32;1.95;;;16.10;99.90;;;;;;6152333;23;20428;-94
2023/09/24 09:09:00;;;;;;;7.00;2.07;;;16.40;99.90;;;;;;6153203;23;20377;-93
2023/09/24 09:11:40;;;;;;;7.50;2.10;;;16.90;99.90;;;;;;6153431;23;20376;-95
2023/09/24 09:14:06;;;;;;;6.53;1.73;;;16.70;99.90;;;;;;6128155;23;20808;-93
2023/09/24 09:16:51;;;;;;;5.07;1.75;;;16.50;99.90;;;;;;6154020;23;20384;-95
2023/09/24 09:19:17;;;;;;;6.70;2.17;;;16.80;99.90;;;;;;6128654;23;20373;-93
2023/09/24 09:21:43;;;;;;;5.30;1.90;;;17.00;99.90;;;;;;6153616;23;20450;-94
2023/09/24 09:24:25;;;;;;;5.50;1.80;;;16.70;99.90;;;;;;6153011;23;20373;-92
2023/09/24 09:26:56;;;;;;;5.13;2.10;;;17.40;99.90;;;;;;6152669;23;20393;-94
2023/09/24 09:29:27;;;;;;;5.28;1.58;;;17.00;99.90;;;;;;6153250;23;20378;-93
2023/09/24 09:31:54;;;;;;;7.32;1.50;;;16.60;99.90;;;;;;6152781;23;20366;-92
2023/09/24 09:34:21;;;;;;;6.05;1.98;;;17.60;99.90;;;;;;6153616;23;20373;-93
2023/09/24 09:36:47;;;;;;;5.80;1.60;;;17.80;99.90;;;;;;6153092;23;20365;-92
2023/09/24 09:39:12;;;;;;;4.25;1.35;;;17.40;99.90;;;;;;6153278;23;20452;-92
2023/09/24 09:41:42;;;;;;;6.07;1.42;;;17.40;99.90;;;;;;6152900;23;20378;-94
2023/09/24 09:44:08;;;;;;;5.65;1.50;;;17.70;99.90;;;;;;6152638;23;20369;-94
2023/09/24 09:46:41;;;;;;;4.67;1.20;;;17.50;99.90;;;;;;6153077;23;20398;-92
2023/09/24 09:49:08;;;;;;;6.50;1.50;;;17.50;99.90;;;;;;6155164;23;20357;-91
2023/09/24 09:51:39;;;;;;;5.50;1.17;;;17.80;99.90;;;;;;6128476;23;20378;-94
2023/09/24 09:54:08;;;;;;;5.22;1.10;;;18.10;99.90;;;;;;6152861;23;20408;-95
2023/09/24 09:56:38;;;;;;;5.07;1.38;;;17.80;99.90;;;;;;6152898;23;20393;-91
2023/09/24 09:59:07;;;;;;;4.50;1.05;;;18.20;99.90;;;;;;6152758;23;20384;-94
2023/09/24 10:01:34;;;;;;;4.72;1.27;;;17.90;95.60;;;;;;6152349;23;20400;-94
2023/09/24 10:04:03;;;;;;;4.70;0.95;;;18.40;97.20;;;;;;6128748;23;20477;-94
2023/09/24 10:06:35;;;;;;;4.05;1.15;;;18.30;99.90;;;;;;6152369;23;20396;-93
2023/09/24 10:09:01;;;;;;;4.47;1.13;;;18.20;99.90;;;;;;6152951;23;20377;-93
2023/09/24 10:11:32;;;;;;;5.15;1.20;;;18.40;94.80;;;;;;6153066;23;20463;-93
2023/09/24 10:14:08;;;;;;;4.03;0.98;;;18.70;90.60;;;;;;6153001;23;20378;-94
2023/09/24 10:16:41;;;;;;;4.50;1.02;;;18.60;93.40;;;;;;6151334;23;20409;-89
2023/09/24 10:19:10;;;;;;;4.38;1.15;;;18.70;92.80;;;;;;6151824;23;20855;-88
2023/09/24 10:21:37;;;;;;;4.68;1.23;;;18.70;95.20;;;;;;6151698;23;20854;-90
2023/09/24 10:24:14;;;;;;;3.85;1.00;;;19.00;96.10;;;;;;6151769;23;20946;-91
2023/09/24 10:27:01;;;;;;;6.33;1.30;;;19.20;99.10;;;;;;6152119;23;20405;-89
2023/09/24 10:29:56;;;;;;;4.87;1.50;;;19.10;78.00;;;;;;6151552;23;20869;-90
2023/09/24 10:32:22;;;;;;;5.65;1.35;;;19.00;88.60;;;;;;6126232;23;20434;-92
2023/09/24 10:34:54;;;;;;;4.88;0.93;;;19.50;95.90;;;;;;6151782;23;20377;-89
2023/09/24 10:37:30;;;;;;;4.35;1.30;;;20.00;77.40;;;;;;6177458;23;20850;-92
2023/09/24 10:39:59;;;;;;;3.85;1.15;;;19.80;75.90;;;;;;6126561;23;20381;-89
2023/09/24 10:42:26;;;;;;;4.18;0.77;;;19.90;72.50;;;;;;6151872;23;20389;-90
2023/09/24 10:45:07;;;;;;;3.83;0.70;;;19.90;67.60;;;;;;6151762;23;20369;-90
2023/09/24 10:47:41;;;;;;;5.22;1.10;;;20.00;76.30;;;;;;6127177;23;20822;-93
2023/09/24 10:50:09;;;;;;;4.03;0.80;;;20.10;83.40;;;;;;6152132;23;20926;-90
2023/09/24 10:52:51;;;;;;;4.05;0.80;;;20.10;87.60;;;;;;6151540;23;20381;-90
2023/09/24 10:55:30;;;;;;;4.53;0.93;;;20.50;71.70;;;;;;6151135;23;20423;-91
2023/09/24 10:58:01;;;;;;;3.80;0.85;;;20.70;76.10;;;;;;6151774;23;20381;-91
2023/09/24 11:00:28;;;;;;;4.05;0.88;;;21.20;72.60;;;;;;6151562;23;20491;-90
2023/09/24 11:03:04;;;;;;;4.45;1.13;;;21.10;73.30;;;;;;6151537;23;20373;-93
2023/09/24 11:05:52;;;;;;;5.22;0.77;;;21.40;61.80;;;;;;6127830;23;20484;-91
2023/09/24 11:08:23;;;;;;;3.70;0.90;;;21.50;60.30;;;;;;6127462;23;20373;-90
2023/09/24 11:10:49;;;;;;;4.50;0.90;;;21.80;55.60;;;;;;6152242;23;20372;-90
2023/09/24 11:13:16;;;;;;;3.25;0.80;;;22.00;69.40;;;;;;6152988;23;21087;-92
2023/09/24 11:15:42;;;;;;;3.92;0.77;;;22.00;61.30;;;;;;6151457;23;20369;-92
2023/09/24 11:18:11;;;;;;;4.72;0.73;;;22.50;57.00;;;;;;6151467;23;20377;-90
2023/09/24 11:20:36;;;;;;;3.20;0.90;;;22.40;58.70;;;;;;6152004;23;20448;-91
2023/09/24 11:23:06;;;;;;;3.13;0.80;;;22.30;56.60;;;;;;6152796;23;20405;-92
2023/09/24 11:25:32;;;;;;;3.80;1.00;;;22.30;56.20;;;;;;6151513;23;20424;-90
2023/09/24 11:28:00;;;;;;;4.57;0.90;;;22.30;56.30;;;;;;6151839;23;20471;-89
2023/09/24 11:30:40;;;;;;;3.80;0.60;;;22.30;54.30;;;;;;6152853;23;20369;-91
2023/09/24 11:33:23;;;;;;;3.97;0.63;;;22.40;54.90;;;;;;6152200;23;20375;-92
2023/09/24 11:35:54;;;;;;;3.27;0.83;;;22.20;54.40;;;;;;6152330;23;20478;-91
2023/09/24 11:38:46;;;;;;;3.75;0.90;;;22.40;56.10;;;;;;6152977;23;20383;-90
2023/09/24 11:41:13;;;;;;;3.80;0.80;;;22.20;57.90;;;;;;6121754;23;20719;-89
2023/09/24 11:43:40;;;;;;;3.90;0.70;;;22.30;56.10;;;;;;6152090;23;20378;-91
2023/09/24 11:46:28;;;;;;;3.85;0.75;;;22.20;53.30;;;;;;6126897;23;20476;-89
2023/09/24 11:48:55;;;;;;;2.92;0.70;;;22.00;56.00;;;;;;6151829;23;20381;-92
2023/09/24 11:51:21;;;;;;;3.37;0.67;;;22.20;54.40;;;;;;6151937;23;20469;-89
2023/09/24 11:53:47;;;;;;;3.15;0.70;;;22.30;55.80;;;;;;6128764;23;20388;-92
2023/09/24 11:56:13;;;;;;;3.40;0.80;;;22.20;55.20;;;;;;6153051;23;20699;-93
2023/09/24 11:58:38;;;;;;;3.97;0.90;;;22.40;56.30;;;;;;6151952;23;20444;-92
2023/09/24 12:01:06;;;;;;;3.08;0.80;;;22.80;59.20;;;;;;6129036;23;20373;-93
2023/09/24 12:03:32;;;;;;;3.15;0.75;;;23.00;51.40;;;;;;6151869;23;20432;-93
2023/09/24 12:05:58;;;;;;;3.67;0.80;;;23.20;50.20;;;;;;6151741;23;20397;-90
2023/09/24 12:08:30;;;;;;;4.47;1.00;;;23.30;50.60;;;;;;6152080;23;20381;-94
2023/09/24 12:10:55;;;;;;;3.13;0.60;;;23.40;50.20;;;;;;6153364;23;20782;-91
2023/09/24 12:13:22;;;;;;;4.45;0.88;;;23.60;49.30;;;;;;6127421;23;20413;-91
2023/09/24 12:15:48;;;;;;;1.98;0.50;;;23.70;52.00;;;;;;6152250;23;20370;-91
2023/09/24 12:18:24;;;;;;;5.00;0.60;;;23.90;48.80;;;;;;6152984;23;20362;-91
2023/09/24 12:20:50;;;;;;;3.70;0.90;;;24.30;49.10;;;;;;6126888;23;20370;-91
2023/09/24 12:23:15;;;;;;;3.53;0.50;;;24.30;47.70;;;;;;6150967;23;20420;-91
2023/09/24 12:25:43;;;;;;;2.88;0.52;;;24.20;49.00;;;;;;6151160;23;20393;-90
2023/09/24 12:28:15;;;;;;;4.20;0.60;;;24.30;49.70;;;;;;6151980;23;20878;-92
2023/09/24 12:30:46;;;;;;;2.58;0.50;;;24.40;48.60;;;;;;6127560;23;20365;-92
2023/09/24 12:33:21;;;;;;;2.33;0.57;;;24.40;48.30;;;;;;6127311;23;20376;-94
2023/09/24 12:35:54;;;;;;;2.93;0.50;;;24.40;49.20;;;;;;6151259;23;20464;-90
2023/09/24 12:38:19;;;;;;;2.63;0.50;;;24.40;51.00;;;;;;6151462;23;20448;-88
2023/09/24 12:40:46;;;;;;;3.38;0.80;;;24.30;50.10;;;;;;6151806;23;20390;-88
2023/09/24 12:43:12;;;;;;;3.50;0.50;;;23.90;47.20;;;;;;6152142;23;20420;-93
2023/09/24 12:45:37;;;;;;;2.40;0.50;;;23.60;50.30;;;;;;6152460;23;20759;-89